Time;durP1;ratioP1;P1;durP2;ratioP2;P2;SDS_P1;SDS_P2;PMS_P1;PMS_P2;Temp;Humidity;BMP_temperature;BMP_pressure;BME280_temperature;BME280_humidity;BME280_pressure;Samples;Min_cycle;Max_cycle;Signal;HPM_P1;HPM_P2
2022/05/30 00:02:25;;;;;;;3.33;1.63;;;13.60;47.10;;;;;;5064068;28;20436;-74
2022/05/30 00:04:51;;;;;;;2.90;1.40;;;13.60;47.20;;;;;;5061503;28;20033;-74
2022/05/30 00:07:17;;;;;;;1.75;1.50;;;13.60;47.20;;;;;;5065478;28;20040;-74
2022/05/30 00:09:43;;;;;;;8.40;2.13;;;13.60;47.20;;;;;;5048978;28;20584;-73
2022/05/30 00:12:09;;;;;;;1.40;1.30;;;13.60;47.30;;;;;;5067393;28;20056;-74
2022/05/30 00:14:35;;;;;;;1.60;1.40;;;13.60;47.30;;;;;;5062579;28;20036;-74
2022/05/30 00:17:01;;;;;;;2.25;1.50;;;13.60;47.40;;;;;;5065978;28;20291;-73
2022/05/30 00:19:27;;;;;;;1.67;1.42;;;13.60;47.40;;;;;;5046153;28;20032;-73
2022/05/30 00:21:56;;;;;;;1.83;1.40;;;13.60;47.50;;;;;;5061454;28;20025;-73
2022/05/30 00:24:23;;;;;;;2.85;1.80;;;13.60;47.60;;;;;;5066354;28;20303;-74
2022/05/30 00:26:49;;;;;;;1.48;1.25;;;13.50;47.40;;;;;;5049278;28;20046;-74
2022/05/30 00:29:15;;;;;;;1.88;1.30;;;13.60;47.60;;;;;;5046087;28;20535;-73
2022/05/30 00:31:41;;;;;;;2.28;1.83;;;13.60;47.70;;;;;;5058644;28;20024;-73
2022/05/30 00:34:07;;;;;;;3.42;1.58;;;13.60;47.70;;;;;;5065507;28;20043;-72
2022/05/30 00:36:33;;;;;;;1.58;1.45;;;13.60;48.30;;;;;;5039080;28;20037;-74
2022/05/30 00:38:58;;;;;;;3.20;1.50;;;13.50;47.60;;;;;;5046696;28;20028;-73
2022/05/30 00:41:26;;;;;;;1.98;1.73;;;13.60;47.80;;;;;;5056208;28;20029;-73
2022/05/30 00:43:52;;;;;;;2.30;1.77;;;13.60;47.90;;;;;;5047800;28;20489;-73
2022/05/30 00:46:18;;;;;;;2.15;1.48;;;13.50;47.70;;;;;;5066423;28;20032;-73
2022/05/30 00:48:51;;;;;;;2.90;1.20;;;13.60;47.90;;;;;;5035280;28;20036;-73
2022/05/30 00:51:27;;;;;;;2.53;1.58;;;13.50;47.80;;;;;;5043581;28;20025;-74
2022/05/30 00:53:56;;;;;;;2.70;1.70;;;13.50;47.90;;;;;;5037457;28;20483;-73
2022/05/30 00:56:29;;;;;;;2.30;2.10;;;13.50;47.90;;;;;;5054286;28;20034;-73
2022/05/30 00:58:55;;;;;;;;;;;13.50;48.00;;;;;;5041301;28;20040;-73
2022/05/30 01:01:21;;;;;;;3.75;2.22;;;13.50;47.80;;;;;;5032516;28;19913;-73
2022/05/30 01:06:46;;;;;;;5.13;1.80;;;13.50;47.90;;;;;;5052737;28;20024;-73
2022/05/30 01:09:31;;;;;;;2.28;1.88;;;13.50;47.90;;;;;;5053710;28;20033;-75
2022/05/30 01:12:05;;;;;;;1.60;1.50;;;13.50;48.20;;;;;;5047958;28;20028;-74
2022/05/30 01:14:35;;;;;;;1.80;1.70;;;13.50;48.10;;;;;;5052762;28;20035;-73
2022/05/30 01:17:06;;;;;;;2.10;1.70;;;13.40;48.00;;;;;;5045239;28;20032;-73
2022/05/30 01:19:47;;;;;;;2.47;1.70;;;13.40;48.10;;;;;;5026353;28;20051;-74
2022/05/30 01:22:32;;;;;;;2.10;1.60;;;13.40;48.30;;;;;;5029923;28;20033;-74
2022/05/30 01:24:58;;;;;;;2.05;1.83;;;13.50;48.50;;;;;;5023508;28;20036;-74
2022/05/30 01:27:59;;;;;;;2.42;2.13;;;13.50;48.40;;;;;;5043109;28;20033;-73
2022/05/30 01:30:26;;;;;;;3.55;1.83;;;13.40;48.50;;;;;;5008382;28;20069;-74
2022/05/30 01:32:59;;;;;;;2.70;2.00;;;13.40;48.30;;;;;;5021924;28;20075;-74
2022/05/30 01:35:28;;;;;;;2.00;1.70;;;13.50;48.60;;;;;;5035887;28;20076;-74
2022/05/30 01:37:58;;;;;;;3.85;2.70;;;13.40;48.40;;;;;;5023321;28;20029;-73
2022/05/30 01:40:26;;;;;;;2.70;2.05;;;13.40;48.50;;;;;;5010941;28;20374;-73
2022/05/30 01:42:54;;;;;;;2.17;1.60;;;13.40;48.60;;;;;;5030268;28;20036;-74
2022/05/30 01:45:21;;;;;;;2.42;1.70;;;13.40;48.60;;;;;;5041129;28;20071;-73
2022/05/30 01:47:47;;;;;;;2.60;2.08;;;13.40;48.70;;;;;;5045805;28;20056;-73
2022/05/30 01:50:13;;;;;;;4.45;2.22;;;13.40;48.70;;;;;;5039390;28;20542;-74
2022/05/30 01:52:41;;;;;;;2.25;2.05;;;13.40;48.80;;;;;;5035146;28;20115;-73
2022/05/30 01:55:08;;;;;;;2.70;2.03;;;13.40;48.90;;;;;;5029974;28;20451;-74
2022/05/30 01:57:57;;;;;;;2.60;2.40;;;13.40;48.90;;;;;;5049826;28;20043;-74
2022/05/30 02:00:36;;;;;;;2.42;1.98;;;13.30;48.80;;;;;;5033471;28;20029;-73
2022/05/30 02:03:04;;;;;;;3.45;2.28;;;13.40;49.00;;;;;;5035192;28;20025;-73
2022/05/30 02:05:33;;;;;;;2.50;2.05;;;13.30;48.90;;;;;;5026343;28;20048;-74
2022/05/30 02:08:01;;;;;;;2.65;1.90;;;13.30;49.00;;;;;;5019018;28;20029;-74
2022/05/30 02:10:29;;;;;;;2.45;2.03;;;13.30;49.10;;;;;;5021032;28;20065;-74
2022/05/30 02:12:58;;;;;;;3.10;2.08;;;13.30;49.20;;;;;;5040858;28;20028;-73
2022/05/30 02:18:34;;;;;;;3.33;2.50;;;13.20;49.10;;;;;;5036108;28;20476;-73
2022/05/30 02:21:00;;;;;;;2.60;2.20;;;13.20;49.10;;;;;;5054071;28;20134;-73
2022/05/30 02:23:26;;;;;;;2.15;1.95;;;13.10;49.00;;;;;;5038809;28;20175;-73
2022/05/30 02:25:51;;;;;;;3.20;2.20;;;13.20;50.00;;;;;;5060257;28;20024;-73
2022/05/30 02:28:17;;;;;;;2.67;1.85;;;13.10;49.20;;;;;;5032120;28;20515;-73
2022/05/30 02:30:43;;;;;;;2.78;2.00;;;13.10;49.20;;;;;;5024708;28;20030;-73
2022/05/30 02:38:39;;;;;;;2.25;2.05;;;13.10;49.40;;;;;;5031729;28;20033;-73
2022/05/30 02:41:23;;;;;;;6.32;2.17;;;13.00;49.20;;;;;;5064848;28;20028;-75
2022/05/30 02:43:55;;;;;;;2.78;1.98;;;13.00;49.30;;;;;;5044208;28;20090;-74
2022/05/30 02:46:21;;;;;;;2.25;2.05;;;13.00;49.40;;;;;;5033976;28;20036;-75
2022/05/30 02:48:48;;;;;;;2.28;2.00;;;13.00;49.50;;;;;;5048559;28;20036;-76
2022/05/30 02:51:14;;;;;;;2.72;2.47;;;13.00;49.60;;;;;;5031375;28;20043;-73
2022/05/30 02:53:40;;;;;;;3.13;1.80;;;13.00;49.70;;;;;;5044831;28;20060;-73
2022/05/30 02:56:31;;;;;;;2.30;1.80;;;12.90;49.60;;;;;;5060075;28;20033;-73
2022/05/30 02:58:59;;;;;;;3.47;1.88;;;12.90;49.60;;;;;;5045814;28;20028;-73
2022/05/30 03:01:25;;;;;;;2.97;2.03;;;12.90;49.60;;;;;;5043328;28;20032;-74
2022/05/30 03:03:52;;;;;;;2.25;2.05;;;12.90;49.70;;;;;;5048422;28;20419;-75
2022/05/30 03:06:19;;;;;;;2.58;2.17;;;12.90;49.80;;;;;;5024624;28;20033;-74
2022/05/30 03:08:45;;;;;;;2.53;2.15;;;12.90;49.90;;;;;;5066698;28;20047;-73
2022/05/30 03:11:11;;;;;;;2.40;2.20;;;12.80;49.70;;;;;;5056643;28;20115;-74
2022/05/30 03:13:38;;;;;;;2.50;2.30;;;12.80;49.80;;;;;;5048305;28;20025;-74
2022/05/30 03:16:05;;;;;;;3.50;2.70;;;12.80;49.80;;;;;;5049502;28;20024;-74
2022/05/30 03:18:32;;;;;;;2.40;2.15;;;12.70;49.70;;;;;;5048299;28;20033;-74
2022/05/30 03:20:59;;;;;;;4.35;2.70;;;12.80;50.00;;;;;;5043588;28;20456;-73
2022/05/30 03:23:25;;;;;;;2.30;2.10;;;12.70;49.90;;;;;;5044522;28;20475;-73
2022/05/30 03:26:05;;;;;;;2.45;1.95;;;12.70;49.90;;;;;;5054734;28;20505;-74
2022/05/30 03:28:33;;;;;;;2.53;2.28;;;12.60;49.80;;;;;;5046920;28;20507;-73
2022/05/30 03:31:01;;;;;;;2.20;1.83;;;12.60;49.80;;;;;;5046497;28;20024;-73
2022/05/30 03:33:30;;;;;;;2.55;1.60;;;12.60;49.90;;;;;;5027415;28;20036;-73
2022/05/30 03:35:56;;;;;;;3.67;2.50;;;12.60;50.00;;;;;;5037869;28;20044;-72
2022/05/30 03:38:55;;;;;;;2.65;2.15;;;12.60;50.10;;;;;;5031273;28;20037;-73
2022/05/30 03:41:39;;;;;;;3.45;2.28;;;12.50;49.90;;;;;;5054395;28;20082;-74
2022/05/30 03:44:09;;;;;;;3.90;2.88;;;12.50;49.90;;;;;;5061784;28;20040;-74
2022/05/30 03:46:34;;;;;;;3.00;2.70;;;12.50;50.00;;;;;;5051227;28;20040;-73
2022/05/30 03:49:02;;;;;;;2.55;2.35;;;12.40;50.00;;;;;;5050301;28;20058;-75
2022/05/30 03:51:28;;;;;;;3.90;2.45;;;12.40;50.00;;;;;;5051961;28;20028;-73
2022/05/30 03:53:54;;;;;;;2.47;2.28;;;12.40;50.10;;;;;;5050592;28;20496;-74
2022/05/30 03:56:21;;;;;;;2.25;1.83;;;12.40;50.20;;;;;;5031615;28;20048;-74
2022/05/30 03:58:48;;;;;;;2.65;2.35;;;12.30;50.10;;;;;;5035794;28;20080;-73
2022/05/30 04:01:14;;;;;;;2.45;1.98;;;12.30;50.10;;;;;;5044696;28;20024;-74
2022/05/30 04:03:40;;;;;;;2.28;2.08;;;12.30;50.20;;;;;;5065357;28;20044;-74
2022/05/30 04:06:08;;;;;;;2.05;1.85;;;12.30;50.20;;;;;;5033983;28;20755;-74
2022/05/30 04:08:35;;;;;;;2.97;2.28;;;12.20;50.10;;;;;;5050901;28;20100;-73
2022/05/30 04:11:28;;;;;;;4.05;2.40;;;12.20;50.20;;;;;;5050726;28;20644;-74
2022/05/30 04:14:13;;;;;;;2.83;2.53;;;12.20;50.20;;;;;;5067062;28;20747;-74
2022/05/30 04:16:43;;;;;;;2.88;2.60;;;12.20;50.20;;;;;;5043841;28;20035;-74
2022/05/30 04:19:12;;;;;;;2.60;2.40;;;12.20;50.20;;;;;;5059270;28;20028;-74
2022/05/30 04:21:39;;;;;;;2.47;2.17;;;12.20;50.30;;;;;;5049800;28;20032;-74
2022/05/30 04:24:05;;;;;;;2.67;2.03;;;12.10;50.10;;;;;;5050579;28;20403;-74
2022/05/30 04:26:39;;;;;;;2.40;2.20;;;12.20;50.40;;;;;;5035448;28;20032;-74
2022/05/30 04:29:07;;;;;;;2.75;2.10;;;12.20;50.40;;;;;;5033535;28;20068;-74
2022/05/30 04:31:52;;;;;;;2.60;2.33;;;12.20;50.50;;;;;;5047983;28;20138;-75
2022/05/30 04:34:18;;;;;;;4.65;2.55;;;12.20;50.40;;;;;;5053177;28;20025;-75
2022/05/30 04:36:44;;;;;;;3.65;2.40;;;12.20;50.40;;;;;;5053407;28;20576;-74
2022/05/30 04:39:10;;;;;;;2.17;1.98;;;12.20;50.50;;;;;;5047068;28;20055;-73
2022/05/30 04:41:39;;;;;;;2.58;1.98;;;12.20;50.50;;;;;;5072013;28;20033;-74
2022/05/30 04:44:23;;;;;;;2.65;2.25;;;12.20;50.50;;;;;;5067746;28;20992;-74
2022/05/30 04:46:58;;;;;;;2.30;1.98;;;12.20;50.50;;;;;;5069617;28;20085;-74
2022/05/30 04:49:25;;;;;;;2.35;1.95;;;12.20;50.50;;;;;;5057951;28;20028;-74
2022/05/30 04:51:52;;;;;;;2.20;1.95;;;12.20;50.50;;;;;;5043071;28;20040;-74
2022/05/30 04:54:19;;;;;;;2.90;2.15;;;12.20;50.50;;;;;;5064736;28;20085;-75
2022/05/30 04:57:06;;;;;;;4.05;2.30;;;12.20;50.60;;;;;;5030174;28;20127;-74
2022/05/30 04:59:39;;;;;;;2.95;2.20;;;12.20;51.10;;;;;;5044689;28;20074;-74
2022/05/30 05:02:06;;;;;;;3.25;2.30;;;12.30;50.70;;;;;;5017496;28;20036;-72
2022/05/30 05:04:37;;;;;;;2.40;2.10;;;12.30;50.70;;;;;;5043555;28;20064;-73
2022/05/30 05:07:04;;;;;;;2.28;2.08;;;12.30;50.70;;;;;;5040364;28;20055;-74
2022/05/30 05:09:35;;;;;;;2.22;2.03;;;12.30;50.70;;;;;;5036200;28;20091;-73
2022/05/30 05:12:20;;;;;;;2.88;2.20;;;12.30;50.70;;;;;;5062699;28;20217;-74
2022/05/30 05:15:18;;;;;;;3.60;2.72;;;12.40;50.80;;;;;;5033631;28;20059;-74
2022/05/30 05:18:09;;;;;;;4.82;2.33;;;12.40;50.70;;;;;;5050537;28;20040;-73
2022/05/30 05:20:41;;;;;;;2.33;2.00;;;12.50;50.70;;;;;;5044458;28;20028;-73
2022/05/30 05:23:07;;;;;;;2.60;2.27;;;12.60;50.90;;;;;;5059321;28;20271;-73
2022/05/30 05:25:51;;;;;;;2.67;2.35;;;12.60;50.70;;;;;;5040012;28;20626;-74
2022/05/30 05:28:50;;;;;;;2.50;2.30;;;12.70;50.80;;;;;;5008934;28;20480;-74
2022/05/30 05:31:36;;;;;;;2.40;2.17;;;12.80;50.80;;;;;;5062257;28;20391;-74
2022/05/30 05:34:06;;;;;;;3.38;2.50;;;12.80;50.90;;;;;;5027131;28;20051;-74
2022/05/30 05:36:35;;;;;;;3.92;2.53;;;12.80;50.70;;;;;;5059678;28;20020;-74
2022/05/30 05:39:01;;;;;;;2.60;2.40;;;12.90;50.90;;;;;;5031592;28;20036;-74
2022/05/30 05:41:46;;;;;;;2.70;2.50;;;12.90;50.80;;;;;;5062657;28;20025;-72
2022/05/30 05:44:15;;;;;;;5.70;3.92;;;13.00;50.90;;;;;;5061703;28;20511;-74
2022/05/30 05:46:41;;;;;;;3.92;3.38;;;13.10;51.10;;;;;;5036497;28;20056;-77
2022/05/30 05:49:10;;;;;;;4.20;3.80;;;13.10;51.00;;;;;;5027098;28;20025;-75
2022/05/30 05:51:38;;;;;;;4.53;4.13;;;13.10;51.10;;;;;;5043000;28;20123;-84
2022/05/30 05:54:07;;;;;;;6.20;4.25;;;13.20;51.30;;;;;;5045779;28;20036;-75
2022/05/30 05:56:34;;;;;;;5.28;3.75;;;13.20;51.30;;;;;;5041755;28;20592;-74
2022/05/30 05:59:04;;;;;;;4.28;3.90;;;13.30;51.40;;;;;;5036880;28;20025;-73
2022/05/30 06:01:33;;;;;;;5.15;4.50;;;13.30;51.30;;;;;;5044693;28;20059;-73
2022/05/30 06:04:03;;;;;;;4.03;3.55;;;13.40;51.50;;;;;;5035985;28;20052;-73
2022/05/30 06:07:00;;;;;;;4.57;4.15;;;13.40;51.40;;;;;;5037922;28;20124;-72
2022/05/30 06:09:30;;;;;;;5.85;4.75;;;13.50;51.50;;;;;;5038764;28;20499;-73
2022/05/30 06:12:02;;;;;;;5.90;4.57;;;13.60;51.50;;;;;;5038909;28;20048;-72
2022/05/30 06:14:30;;;;;;;5.45;4.97;;;13.60;51.40;;;;;;5032184;28;20032;-72
2022/05/30 06:16:56;;;;;;;5.00;4.40;;;13.70;51.50;;;;;;5034348;28;20063;-73
2022/05/30 06:19:25;;;;;;;7.97;5.40;;;13.70;51.40;;;;;;5039512;28;20021;-72
2022/05/30 06:21:51;;;;;;;6.65;6.00;;;13.80;51.50;;;;;;5041331;28;20463;-73
2022/05/30 06:24:17;;;;;;;5.90;5.40;;;13.90;51.50;;;;;;5059905;28;20055;-73
2022/05/30 06:26:44;;;;;;;5.95;4.90;;;14.00;51.60;;;;;;5062760;28;20024;-75
2022/05/30 06:29:19;;;;;;;6.40;4.90;;;14.20;52.20;;;;;;5054354;28;20037;-73
2022/05/30 06:31:45;;;;;;;7.22;5.00;;;14.40;51.60;;;;;;5038775;28;20082;-72
2022/05/30 06:34:12;;;;;;;5.00;4.30;;;14.60;51.60;;;;;;5041419;28;20123;-72
2022/05/30 06:36:42;;;;;;;9.18;4.60;;;14.80;51.60;;;;;;5033658;28;20059;-72
2022/05/30 06:39:10;;;;;;;6.90;4.80;;;15.10;51.70;;;;;;5035419;28;20120;-72
2022/05/30 06:41:40;;;;;;;4.43;3.97;;;15.40;51.40;;;;;;5044126;28;20143;-74
2022/05/30 06:44:10;;;;;;;5.75;4.40;;;15.70;51.10;;;;;;5042389;28;20040;-73
2022/05/30 06:46:55;;;;;;;6.90;4.82;;;16.00;51.00;;;;;;5038932;28;20625;-73
2022/05/30 06:49:39;;;;;;;4.35;3.95;;;16.10;50.40;;;;;;5040236;28;20037;-72
2022/05/30 06:52:08;;;;;;;4.97;4.47;;;16.10;50.00;;;;;;5015786;28;20137;-73
2022/05/30 06:54:35;;;;;;;6.45;4.03;;;16.00;50.00;;;;;;5037434;28;20442;-72
2022/05/30 06:59:46;;;;;;;4.50;3.80;;;15.70;50.80;;;;;;5022773;28;20082;-75
2022/05/30 07:02:12;;;;;;;5.30;3.75;;;15.60;50.50;;;;;;5040894;28;20489;-75
2022/05/30 07:04:56;;;;;;;4.68;4.03;;;15.90;50.90;;;;;;5040980;28;20051;-75
2022/05/30 07:07:41;;;;;;;4.13;3.60;;;16.20;50.70;;;;;;5049531;28;20028;-74
2022/05/30 07:10:28;;;;;;;5.38;4.15;;;16.50;50.80;;;;;;5037512;28;20045;-74
2022/05/30 07:13:12;;;;;;;4.40;3.40;;;17.20;51.30;;;;;;5023399;28;20487;-74
2022/05/30 07:15:38;;;;;;;4.28;3.85;;;18.10;50.70;;;;;;5023517;28;20523;-74
2022/05/30 07:18:14;;;;;;;4.13;3.58;;;19.00;50.30;;;;;;5059727;28;20388;-73
2022/05/30 07:20:41;;;;;;;4.75;3.38;;;19.80;49.30;;;;;;5033051;28;20037;-74
2022/05/30 07:23:40;;;;;;;4.18;2.72;;;20.30;49.00;;;;;;4985496;28;20033;-73
2022/05/30 07:26:41;;;;;;;12.60;3.58;;;20.60;49.00;;;;;;5040674;28;20270;-74
2022/05/30 07:29:08;;;;;;;4.10;3.17;;;20.50;48.60;;;;;;5059819;28;20025;-75
2022/05/30 07:31:56;;;;;;;3.47;3.17;;;20.40;48.50;;;;;;5034231;28;20075;-74
2022/05/30 07:34:41;;;;;;;2.90;2.70;;;20.40;49.30;;;;;;5040101;28;20040;-74
2022/05/30 07:37:34;;;;;;;4.05;2.90;;;20.30;48.50;;;;;;5017002;28;20179;-74
2022/05/30 07:40:35;;;;;;;4.32;3.30;;;20.20;48.50;;;;;;4959684;28;20376;-75
2022/05/30 07:43:27;;;;;;;6.60;2.63;;;20.10;48.20;;;;;;5002332;28;20179;-75
2022/05/30 07:46:10;;;;;;;3.75;3.35;;;19.90;47.70;;;;;;5039368;28;20041;-75
2022/05/30 07:48:49;;;;;;;3.10;2.80;;;20.00;47.90;;;;;;5022011;28;20037;-75
2022/05/30 07:51:33;;;;;;;4.50;3.63;;;20.10;47.40;;;;;;5037730;28;20145;-75
2022/05/30 07:54:16;;;;;;;3.70;3.22;;;20.10;47.10;;;;;;5006570;28;20032;-74
2022/05/30 07:56:54;;;;;;;3.42;2.58;;;19.90;46.90;;;;;;5022397;28;20037;-73
2022/05/30 07:59:21;;;;;;;3.08;2.63;;;19.70;46.80;;;;;;5019460;28;20028;-74
2022/05/30 08:01:47;;;;;;;2.88;2.67;;;19.60;47.00;;;;;;5006826;28;20029;-73
2022/05/30 08:04:15;;;;;;;4.22;3.05;;;19.40;46.80;;;;;;5018830;28;20041;-77
2022/05/30 08:06:43;;;;;;;4.40;2.97;;;19.30;46.90;;;;;;5039961;28;20025;-75
2022/05/30 08:09:32;;;;;;;2.80;2.25;;;19.20;47.10;;;;;;5037487;28;20040;-74
2022/05/30 08:12:13;;;;;;;2.88;2.47;;;19.30;47.50;;;;;;5008156;28;20729;-74
2022/05/30 08:14:55;;;;;;;3.20;2.60;;;19.50;48.30;;;;;;5041037;28;20120;-74
2022/05/30 08:17:22;;;;;;;2.72;2.05;;;19.70;47.80;;;;;;5026991;28;20473;-75
2022/05/30 08:19:49;;;;;;;2.40;2.20;;;20.00;48.00;;;;;;5025333;28;20051;-76
2022/05/30 08:22:22;;;;;;;3.28;2.40;;;20.20;47.90;;;;;;5011054;28;20029;-75
2022/05/30 08:24:48;;;;;;;3.75;2.20;;;20.60;48.00;;;;;;5023189;28;20100;-74
2022/05/30 08:27:16;;;;;;;3.67;2.10;;;20.80;48.50;;;;;;5030819;28;20025;-74
2022/05/30 08:29:46;;;;;;;3.45;2.20;;;21.10;47.80;;;;;;5025677;28;20045;-74
2022/05/30 08:32:13;;;;;;;3.13;1.77;;;21.20;47.70;;;;;;5030777;28;20126;-74
2022/05/30 08:35:04;;;;;;;4.82;2.17;;;21.20;47.60;;;;;;5031594;28;20043;-73
2022/05/30 08:37:32;;;;;;;4.95;2.00;;;21.10;47.50;;;;;;5017080;28;20074;-73
2022/05/30 08:42:46;;;;;;;3.90;2.00;;;20.90;47.50;;;;;;5030613;28;20045;-74
2022/05/30 08:45:30;;;;;;;2.95;1.88;;;20.70;47.40;;;;;;5051750;28;20036;-74
2022/05/30 08:48:26;;;;;;;3.22;1.75;;;20.60;47.40;;;;;;5052957;28;20043;-74
2022/05/30 08:51:06;;;;;;;3.22;2.20;;;20.60;47.50;;;;;;5062608;28;20016;-72
2022/05/30 08:53:47;;;;;;;2.80;1.70;;;20.60;47.50;;;;;;5040270;28;20024;-75
2022/05/30 08:56:24;;;;;;;2.47;2.10;;;20.60;47.40;;;;;;5055167;28;20029;-75
2022/05/30 08:59:43;;;;;;;2.58;1.92;;;20.60;47.40;;;;;;5054894;28;20460;-75
2022/05/30 09:02:20;;;;;;;2.33;1.60;;;20.70;47.80;;;;;;5048933;28;20032;-75
2022/05/30 09:05:07;;;;;;;2.63;2.05;;;20.90;48.10;;;;;;5043045;28;20040;-75
2022/05/30 09:07:46;;;;;;;3.65;2.28;;;21.00;48.20;;;;;;5043718;28;20024;-75
2022/05/30 09:10:43;;;;;;;3.85;2.10;;;21.30;48.50;;;;;;5045398;28;20108;-78
2022/05/30 09:13:25;;;;;;;2.53;2.00;;;21.60;48.60;;;;;;5055230;28;20033;-76
2022/05/30 09:16:17;;;;;;;3.28;2.10;;;22.00;48.60;;;;;;5042126;28;20434;-77
2022/05/30 09:18:45;;;;;;;2.72;2.30;;;22.30;48.50;;;;;;5032174;28;20067;-73
2022/05/30 09:21:14;;;;;;;3.65;2.30;;;22.40;48.30;;;;;;5029953;28;20387;-78
2022/05/30 09:23:44;;;;;;;3.55;1.98;;;22.30;48.10;;;;;;5043853;28;20086;-78
2022/05/30 09:26:19;;;;;;;4.13;2.00;;;22.30;48.40;;;;;;5043717;28;20024;-76
2022/05/30 09:29:17;;;;;;;3.65;2.47;;;22.10;48.20;;;;;;5056543;28;20089;-78
2022/05/30 09:32:01;;;;;;;3.28;2.15;;;21.90;48.30;;;;;;5059303;28;20044;-77
2022/05/30 09:34:49;;;;;;;3.15;2.03;;;21.80;48.50;;;;;;5052480;28;20036;-77
2022/05/30 09:37:38;;;;;;;2.42;1.98;;;21.60;48.50;;;;;;5058102;28;20109;-79
2022/05/30 09:40:39;;;;;;;2.13;1.70;;;21.50;48.70;;;;;;5017070;28;20132;-75
2022/05/30 09:43:39;;;;;;;3.03;1.80;;;21.50;48.80;;;;;;5040439;28;20075;-77
2022/05/30 09:46:34;;;;;;;3.28;2.60;;;21.60;49.00;;;;;;5032684;28;20110;-76
2022/05/30 09:49:18;;;;;;;4.30;1.80;;;21.60;48.90;;;;;;5016079;28;20063;-75
2022/05/30 09:51:49;;;;;;;2.20;2.00;;;21.70;49.00;;;;;;5025442;28;20056;-75
2022/05/30 09:54:38;;;;;;;2.75;1.70;;;21.80;49.00;;;;;;5025088;28;20021;-74
2022/05/30 09:57:19;;;;;;;2.33;1.90;;;21.90;48.90;;;;;;5004554;28;20037;-78
2022/05/30 10:00:20;;;;;;;3.08;2.67;;;22.00;48.90;;;;;;5023715;28;20079;-78
2022/05/30 10:03:07;;;;;;;3.75;2.22;;;22.20;48.80;;;;;;5020664;28;20033;-75
2022/05/30 10:05:34;;;;;;;;;;;22.40;48.90;;;;;;5008469;28;20029;-75
2022/05/30 10:08:02;;;;;;;3.72;2.55;;;22.50;48.80;;;;;;5023631;28;19912;-75
2022/05/30 10:10:50;;;;;;;1.67;1.58;;;22.70;49.00;;;;;;5037222;28;20476;-75
2022/05/30 10:13:34;;;;;;;2.67;1.60;;;22.80;48.70;;;;;;5025151;28;20552;-75
2022/05/30 10:16:35;;;;;;;2.13;1.92;;;23.00;48.80;;;;;;5026584;28;20091;-74
2022/05/30 10:19:09;;;;;;;2.85;2.25;;;23.10;48.70;;;;;;5021400;28;20025;-75
2022/05/30 10:28:51;;;;;;;2.33;2.13;;;23.70;48.90;;;;;;5030681;28;20060;-75
2022/05/30 10:31:58;;;;;;;3.03;1.77;;;23.90;48.90;;;;;;5037096;28;20025;-75
2022/05/30 10:34:55;;;;;;;2.83;1.88;;;24.10;49.00;;;;;;5027706;28;20059;-76
2022/05/30 10:37:43;;;;;;;3.22;2.17;;;24.30;49.00;;;;;;5007619;28;20458;-75
2022/05/30 10:40:22;;;;;;;3.17;2.38;;;24.40;48.90;;;;;;5031167;28;20033;-75
2022/05/30 10:43:32;;;;;;;1.80;1.70;;;24.50;49.00;;;;;;5005052;28;20503;-77
2022/05/30 10:46:02;;;;;;;2.47;1.90;;;24.50;48.70;;;;;;5014893;28;20037;-75
2022/05/30 10:48:44;;;;;;;4.55;2.10;;;24.50;48.70;;;;;;5023947;28;20496;-74
2022/05/30 10:51:17;;;;;;;3.55;1.70;;;24.60;48.50;;;;;;5038339;28;20748;-74
2022/05/30 10:54:02;;;;;;;;;;;24.70;48.50;;;;;;5055754;28;20028;-75
2022/05/30 10:56:51;;;;;;;2.90;1.45;;;24.80;48.70;;;;;;5026006;28;20334;-74
2022/05/30 10:59:50;;;;;;;3.13;1.65;;;24.80;48.60;;;;;;5032555;28;20028;-74
2022/05/30 11:02:49;;;;;;;4.55;2.22;;;24.80;48.30;;;;;;5026794;28;20123;-73
2022/05/30 11:05:38;;;;;;;2.67;1.77;;;24.70;48.10;;;;;;5030601;28;20053;-73
2022/05/30 11:08:26;;;;;;;1.50;1.40;;;24.70;48.20;;;;;;5032678;28;20075;-73
2022/05/30 11:11:01;;;;;;;1.95;1.45;;;24.60;47.90;;;;;;5017690;28;20396;-73
2022/05/30 11:13:47;;;;;;;1.67;1.58;;;24.60;47.90;;;;;;5030283;28;20024;-74
2022/05/30 11:17:01;;;;;;;1.42;1.25;;;24.50;47.70;;;;;;5014326;28;20041;-73
2022/05/30 11:19:59;;;;;;;1.88;1.00;;;24.50;47.60;;;;;;5026258;28;20571;-72
2022/05/30 11:22:50;;;;;;;1.38;0.90;;;24.40;47.70;;;;;;5011289;28;20044;-73
2022/05/30 11:25:23;;;;;;;2.22;1.50;;;24.30;47.60;;;;;;5046135;28;20039;-73
2022/05/30 11:28:03;;;;;;;5.50;1.05;;;24.20;47.50;;;;;;5032722;28;20028;-73
2022/05/30 11:30:32;;;;;;;0.75;0.73;;;24.10;47.30;;;;;;5046353;28;20068;-74
2022/05/30 11:33:07;;;;;;;1.60;1.05;;;24.10;47.30;;;;;;5034519;28;20028;-73
2022/05/30 11:36:14;;;;;;;1.27;0.90;;;24.10;47.30;;;;;;5051440;28;20035;-73
2022/05/30 11:38:52;;;;;;;1.20;1.10;;;24.10;47.30;;;;;;4993786;28;20099;-73
2022/05/30 11:41:41;;;;;;;1.65;1.00;;;24.10;47.30;;;;;;5041741;28;20032;-73
2022/05/30 11:44:41;;;;;;;2.42;1.17;;;24.00;47.00;;;;;;5041984;28;20055;-73
2022/05/30 11:47:16;;;;;;;3.40;1.08;;;24.00;47.00;;;;;;5053518;28;20118;-73
2022/05/30 11:50:00;;;;;;;1.55;0.80;;;24.00;47.00;;;;;;5043222;28;20024;-73
2022/05/30 11:52:35;;;;;;;1.05;0.73;;;24.10;47.10;;;;;;5043984;28;20063;-74
2022/05/30 11:55:07;;;;;;;1.05;0.70;;;24.20;47.10;;;;;;5057029;28;20032;-74
2022/05/30 11:57:48;;;;;;;1.95;0.90;;;24.20;46.90;;;;;;5038130;28;20387;-73
2022/05/30 12:00:25;;;;;;;1.13;0.82;;;24.30;47.00;;;;;;5058734;28;20032;-73
2022/05/30 12:02:57;;;;;;;1.70;0.98;;;24.30;47.50;;;;;;5033931;28;20173;-72
2022/05/30 12:05:57;;;;;;;1.15;0.80;;;24.40;47.00;;;;;;5062050;28;20036;-72
2022/05/30 12:08:48;;;;;;;0.77;0.70;;;24.50;46.90;;;;;;5060525;28;20040;-72
2022/05/30 12:11:27;;;;;;;1.50;0.75;;;24.60;46.90;;;;;;5057951;28;20044;-72
2022/05/30 12:14:03;;;;;;;1.58;0.80;;;24.70;46.90;;;;;;5059762;28;20472;-72
2022/05/30 12:16:41;;;;;;;1.75;1.08;;;24.80;46.90;;;;;;5047912;28;20118;-72
2022/05/30 12:25:34;;;;;;;0.80;0.68;;;25.00;47.00;;;;;;4993305;28;20484;-72
2022/05/30 12:28:24;;;;;;;1.23;0.85;;;25.00;46.90;;;;;;5000220;28;20045;-72
2022/05/30 12:31:04;;;;;;;1.02;0.80;;;25.00;46.90;;;;;;5029966;28;20545;-72
2022/05/30 12:33:30;;;;;;;0.77;0.75;;;25.10;47.00;;;;;;5057630;28;20031;-72
2022/05/30 12:36:08;;;;;;;0.95;0.65;;;25.10;46.90;;;;;;5065040;28;20036;-72
2022/05/30 12:38:53;;;;;;;1.00;0.82;;;25.10;46.80;;;;;;5043939;28;20033;-72
2022/05/30 12:41:26;;;;;;;2.47;0.60;;;25.20;46.70;;;;;;5060870;28;20492;-72
2022/05/30 12:43:52;;;;;;;1.15;0.60;;;25.30;46.70;;;;;;5032880;28;20480;-72
2022/05/30 12:46:25;;;;;;;0.80;0.65;;;25.40;46.60;;;;;;5063401;28;20846;-73
2022/05/30 12:48:52;;;;;;;1.38;0.70;;;25.60;46.40;;;;;;5064049;28;20036;-74
2022/05/30 12:51:20;;;;;;;1.02;0.70;;;25.70;46.30;;;;;;5067167;28;20024;-72
2022/05/30 12:53:55;;;;;;;0.65;0.60;;;25.90;46.10;;;;;;5040929;28;20538;-72
2022/05/30 12:56:40;;;;;;;1.42;0.70;;;26.10;45.90;;;;;;5058705;28;20033;-72
2022/05/30 12:59:15;;;;;;;1.63;1.10;;;26.20;45.70;;;;;;5062770;28;20033;-72
2022/05/30 13:01:44;;;;;;;1.25;0.88;;;26.30;45.60;;;;;;5053985;28;20076;-72
2022/05/30 13:04:16;;;;;;;2.35;1.15;;;26.50;45.50;;;;;;5063598;28;20235;-72
2022/05/30 13:06:56;;;;;;;2.22;1.10;;;26.50;45.20;;;;;;5045209;28;20387;-72
2022/05/30 13:09:23;;;;;;;1.02;0.60;;;26.70;45.20;;;;;;5060940;28;20147;-72
2022/05/30 13:12:11;;;;;;;1.13;0.85;;;27.00;45.10;;;;;;5042854;28;20055;-72
2022/05/30 13:14:39;;;;;;;0.88;0.70;;;27.50;44.60;;;;;;5062277;28;20035;-73
2022/05/30 13:17:23;;;;;;;1.00;0.65;;;28.10;44.20;;;;;;5046537;28;20025;-73
2022/05/30 13:19:56;;;;;;;1.75;0.95;;;28.70;43.60;;;;;;5043265;28;20024;-74
2022/05/30 13:22:27;;;;;;;;;;;29.20;43.10;;;;;;5066015;28;20127;-73
2022/05/30 13:24:53;;;;;;;1.30;0.60;;;29.60;42.80;;;;;;5062237;28;19920;-72
2022/05/30 13:27:19;;;;;;;0.90;0.60;;;30.10;42.40;;;;;;5062941;28;20374;-72
2022/05/30 13:29:45;;;;;;;1.25;0.70;;;30.50;41.90;;;;;;5060076;28;20032;-74
2022/05/30 13:32:15;;;;;;;1.00;0.57;;;30.80;41.40;;;;;;5056389;28;20033;-72
2022/05/30 13:34:48;;;;;;;0.80;0.70;;;31.00;40.90;;;;;;5061315;28;20037;-72
2022/05/30 13:37:23;;;;;;;1.25;0.68;;;31.30;40.70;;;;;;5063327;28;20067;-72
2022/05/30 13:39:50;;;;;;;1.08;0.52;;;31.70;40.30;;;;;;5062937;28;20070;-73
2022/05/30 13:42:16;;;;;;;0.90;0.65;;;31.90;40.10;;;;;;5045293;28;20071;-73
2022/05/30 13:44:42;;;;;;;1.00;0.60;;;32.10;39.80;;;;;;5039654;28;20037;-73
2022/05/30 13:47:16;;;;;;;0.88;0.75;;;32.40;39.60;;;;;;5060681;28;20455;-73
2022/05/30 13:49:44;;;;;;;1.20;0.70;;;32.60;39.80;;;;;;5060835;28;20728;-73
2022/05/30 13:52:31;;;;;;;1.58;0.60;;;32.80;39.00;;;;;;5063642;28;20108;-73
2022/05/30 13:55:01;;;;;;;0.82;0.50;;;33.10;38.30;;;;;;5040423;28;20063;-73
2022/05/30 13:57:29;;;;;;;1.40;0.45;;;33.30;38.10;;;;;;5063944;28;20036;-72
2022/05/30 13:59:59;;;;;;;1.50;0.60;;;33.60;37.80;;;;;;5057317;28;20036;-72
2022/05/30 14:02:28;;;;;;;1.42;0.57;;;33.90;37.60;;;;;;5038660;28;20616;-73